createdAt,value
2017-08-22T00:01:48.635Z,14.30
2017-08-22T00:04:16.063Z,14.20
2017-08-22T00:09:17.559Z,14.10
2017-08-22T00:11:45.096Z,14.10
2017-08-22T00:14:12.623Z,14.00
2017-08-22T00:16:40.099Z,13.90
2017-08-22T00:19:07.523Z,13.90
2017-08-22T00:21:35.030Z,13.90
2017-08-22T00:24:02.470Z,13.90
2017-08-22T00:26:29.907Z,13.90
2017-08-22T00:28:57.344Z,13.80
2017-08-22T00:31:24.788Z,13.80
2017-08-22T00:33:52.246Z,13.80
2017-08-22T00:36:19.702Z,13.80
2017-08-22T00:38:47.144Z,13.80
2017-08-22T00:41:14.572Z,13.80
2017-08-22T00:43:42.015Z,13.80
2017-08-22T00:46:09.443Z,13.70
2017-08-22T00:48:36.905Z,13.70
2017-08-22T00:51:04.342Z,13.70
2017-08-22T00:53:31.780Z,13.70
2017-08-22T00:55:59.269Z,13.70
2017-08-22T00:58:26.696Z,13.70
2017-08-22T01:00:54.123Z,13.70
2017-08-22T01:03:21.656Z,13.70
2017-08-22T01:05:49.087Z,13.60
2017-08-22T01:08:16.538Z,13.60
2017-08-22T01:10:44.097Z,13.60
2017-08-22T01:13:11.655Z,13.50
2017-08-22T01:15:39.083Z,13.50
2017-08-22T01:18:06.516Z,13.50
2017-08-22T01:20:33.944Z,13.50
2017-08-22T01:23:01.395Z,13.50
2017-08-22T01:25:28.837Z,13.50
2017-08-22T01:27:57.115Z,13.40
2017-08-22T01:30:24.553Z,13.40
2017-08-22T01:32:51.991Z,13.40
2017-08-22T01:35:19.431Z,13.30
2017-08-22T01:37:46.859Z,13.30
2017-08-22T01:40:14.303Z,13.30
2017-08-22T01:42:41.751Z,13.40
2017-08-22T01:45:09.192Z,13.30
2017-08-22T01:47:36.665Z,13.30
2017-08-22T01:50:04.103Z,13.30
2017-08-22T01:52:31.643Z,13.30
2017-08-22T01:54:59.176Z,13.30
2017-08-22T01:57:26.605Z,13.30
2017-08-22T01:59:54.140Z,13.30
2017-08-22T02:02:21.611Z,13.20
2017-08-22T02:04:50.148Z,13.30
2017-08-22T02:07:17.604Z,13.30
2017-08-22T02:09:45.159Z,13.20
2017-08-22T02:12:12.584Z,13.10
2017-08-22T02:14:40.028Z,13.00
2017-08-22T02:17:07.478Z,13.00
2017-08-22T02:19:34.916Z,13.00
2017-08-22T02:22:02.343Z,12.90
2017-08-22T02:24:29.782Z,12.90
2017-08-22T02:26:57.339Z,12.90
2017-08-22T02:29:24.800Z,12.90
2017-08-22T02:31:52.239Z,12.90
2017-08-22T02:34:19.699Z,12.90
2017-08-22T02:36:47.243Z,12.90
2017-08-22T02:39:14.692Z,12.80
2017-08-22T02:41:42.197Z,12.90
2017-08-22T02:44:09.616Z,12.80
2017-08-22T02:46:37.064Z,12.80
2017-08-22T02:49:04.483Z,12.80
2017-08-22T02:51:31.927Z,12.80
2017-08-22T02:53:59.355Z,12.80
2017-08-22T02:56:26.801Z,12.80
2017-08-22T02:58:54.245Z,12.80
2017-08-22T03:01:21.704Z,12.70
2017-08-22T03:03:49.161Z,12.70
2017-08-22T03:06:16.612Z,12.70
2017-08-22T03:08:44.037Z,12.70
2017-08-22T03:11:11.476Z,12.60
2017-08-22T03:13:38.917Z,12.60
2017-08-22T03:16:06.430Z,12.60
2017-08-22T03:18:33.856Z,12.50
2017-08-22T03:21:01.288Z,12.50
2017-08-22T03:23:28.768Z,12.50
2017-08-22T03:25:56.203Z,12.60
2017-08-22T03:28:23.811Z,12.50
2017-08-22T03:30:51.232Z,12.40
2017-08-22T03:33:18.696Z,12.40
2017-08-22T03:35:46.244Z,12.40
2017-08-22T03:38:13.707Z,12.30
2017-08-22T03:40:41.137Z,12.30
2017-08-22T03:43:08.600Z,12.30
2017-08-22T03:45:36.030Z,12.30
2017-08-22T03:48:03.469Z,12.30
2017-08-22T03:50:30.893Z,12.30
2017-08-22T03:52:58.343Z,12.30
2017-08-22T03:55:25.780Z,12.20
2017-08-22T03:57:53.241Z,12.20
2017-08-22T04:00:20.680Z,12.30
2017-08-22T04:02:48.123Z,12.30
2017-08-22T04:05:15.552Z,12.30
2017-08-22T04:07:43.016Z,12.30
2017-08-22T04:10:10.463Z,12.30
2017-08-22T04:12:38.000Z,12.30
2017-08-22T04:15:05.508Z,12.30
2017-08-22T04:17:32.960Z,12.20
2017-08-22T04:20:00.400Z,12.20
2017-08-22T04:22:27.884Z,12.20
2017-08-22T04:24:55.421Z,12.20
2017-08-22T04:27:22.855Z,12.20
2017-08-22T04:29:50.296Z,12.20
2017-08-22T04:32:17.751Z,12.20
2017-08-22T04:34:45.223Z,12.20
2017-08-22T04:37:12.718Z,12.20
2017-08-22T04:39:40.155Z,12.10
2017-08-22T04:42:07.607Z,12.10
2017-08-22T04:44:35.043Z,12.10
2017-08-22T04:47:02.471Z,12.10
2017-08-22T04:49:29.948Z,12.20
2017-08-22T04:51:57.380Z,12.20
2017-08-22T04:54:24.842Z,12.20
2017-08-22T04:56:52.272Z,12.20
2017-08-22T04:59:19.725Z,12.30
2017-08-22T05:01:47.155Z,12.30
2017-08-22T05:04:14.703Z,12.30
2017-08-22T05:06:42.128Z,12.40
2017-08-22T05:09:09.559Z,12.40
2017-08-22T05:11:37.040Z,12.40
2017-08-22T05:14:04.476Z,12.50
2017-08-22T05:16:31.940Z,12.50
2017-08-22T05:18:59.381Z,12.60
2017-08-22T05:21:26.816Z,12.60
2017-08-22T05:23:54.247Z,12.60
2017-08-22T05:26:21.688Z,12.70
2017-08-22T05:28:49.116Z,12.70
2017-08-22T05:31:16.562Z,12.70
2017-08-22T05:33:43.989Z,12.80
2017-08-22T05:36:11.427Z,12.90
2017-08-22T05:38:38.915Z,12.90
2017-08-22T05:41:06.448Z,13.00
2017-08-22T05:43:33.989Z,13.00
2017-08-22T05:46:01.437Z,13.00
2017-08-22T05:48:28.868Z,13.00
2017-08-22T05:50:56.380Z,13.10
2017-08-22T05:53:23.807Z,13.20
2017-08-22T05:55:51.247Z,13.40
2017-08-22T05:58:18.698Z,13.50
2017-08-22T06:00:46.134Z,13.70
2017-08-22T06:03:13.631Z,13.80
2017-08-22T06:05:41.180Z,14.00
2017-08-22T06:08:08.617Z,14.30
2017-08-22T06:10:36.060Z,14.60
2017-08-22T06:13:03.500Z,14.90
2017-08-22T06:15:30.935Z,15.20
2017-08-22T06:17:58.380Z,15.40
2017-08-22T06:20:25.835Z,15.60
2017-08-22T06:22:53.290Z,16.00
2017-08-22T06:25:20.719Z,16.30
2017-08-22T06:27:48.180Z,16.50
2017-08-22T06:30:15.625Z,16.80
2017-08-22T06:32:43.069Z,17.00
2017-08-22T06:35:10.552Z,17.30
2017-08-22T06:37:38.047Z,17.60
2017-08-22T06:40:05.504Z,17.80
2017-08-22T06:42:32.944Z,18.20
2017-08-22T06:45:00.468Z,18.60
2017-08-22T06:47:27.908Z,18.90
2017-08-22T06:49:55.335Z,19.10
2017-08-22T06:52:22.788Z,19.20
2017-08-22T06:54:50.216Z,19.30
2017-08-22T06:57:17.685Z,19.70
2017-08-22T06:59:45.120Z,20.00
2017-08-22T07:02:12.545Z,20.10
2017-08-22T07:04:39.981Z,20.30
2017-08-22T07:07:07.419Z,20.50
2017-08-22T07:09:34.891Z,20.70
2017-08-22T07:12:02.312Z,21.10
2017-08-22T07:14:29.759Z,21.30
2017-08-22T07:16:57.205Z,21.40
2017-08-22T07:19:24.639Z,21.60
2017-08-22T07:21:52.065Z,21.90
2017-08-22T07:24:19.500Z,22.10
2017-08-22T07:26:46.976Z,22.00
2017-08-22T07:31:48.240Z,22.40
2017-08-22T07:34:15.683Z,22.70
2017-08-22T07:36:43.287Z,22.50
2017-08-22T07:39:10.756Z,22.80
2017-08-22T07:41:38.169Z,23.20
2017-08-22T07:44:05.613Z,23.20
2017-08-22T07:46:33.133Z,22.90
2017-08-22T07:49:00.548Z,22.80
2017-08-22T07:51:28.090Z,22.80
2017-08-22T07:53:55.624Z,23.20
2017-08-22T07:56:23.063Z,23.30
2017-08-22T07:58:50.599Z,23.50
2017-08-22T08:01:18.039Z,23.80
2017-08-22T08:03:45.484Z,23.60
2017-08-22T08:06:12.923Z,23.40
2017-08-22T08:08:40.356Z,23.80
2017-08-22T08:11:07.803Z,24.10
2017-08-22T08:13:35.233Z,24.10
2017-08-22T08:16:02.672Z,23.90
2017-08-22T08:18:30.135Z,24.20
2017-08-22T08:20:57.584Z,24.40
2017-08-22T08:23:25.016Z,24.00
2017-08-22T08:25:52.495Z,24.10
2017-08-22T08:28:19.907Z,24.10
2017-08-22T08:30:47.456Z,24.40
2017-08-22T08:33:14.876Z,24.50
2017-08-22T08:35:42.319Z,24.70
2017-08-22T08:38:09.754Z,24.60
2017-08-22T08:40:37.235Z,24.30
2017-08-22T08:43:04.787Z,24.40
2017-08-22T08:45:32.259Z,24.50
2017-08-22T08:47:59.761Z,24.60
2017-08-22T08:50:27.351Z,25.00
2017-08-22T08:52:54.840Z,25.20
2017-08-22T08:55:22.272Z,25.10
2017-08-22T08:57:49.727Z,25.60
2017-08-22T09:00:17.203Z,25.80
2017-08-22T09:02:44.716Z,26.00
2017-08-22T09:05:12.162Z,25.50
2017-08-22T09:07:39.604Z,26.00
2017-08-22T09:10:07.020Z,26.20
2017-08-22T09:12:34.463Z,25.70
2017-08-22T09:15:01.896Z,25.80
2017-08-22T09:17:29.342Z,26.30
2017-08-22T09:19:56.767Z,26.40
2017-08-22T09:22:24.231Z,26.60
2017-08-22T09:24:51.648Z,26.90
2017-08-22T09:27:19.128Z,26.20
2017-08-22T09:29:46.563Z,26.20
2017-08-22T09:32:14.006Z,25.80
2017-08-22T09:34:41.436Z,26.10
2017-08-22T09:37:08.911Z,26.20
2017-08-22T09:39:36.360Z,26.10
2017-08-22T09:42:03.806Z,26.40
2017-08-22T09:44:31.243Z,26.30
2017-08-22T09:46:58.708Z,26.50
2017-08-22T09:49:26.139Z,26.30
2017-08-22T09:51:53.673Z,26.80
2017-08-22T09:54:21.116Z,26.50
2017-08-22T09:56:48.662Z,26.30
2017-08-22T09:59:16.128Z,26.50
2017-08-22T10:01:43.524Z,26.50
2017-08-22T10:04:10.968Z,25.60
2017-08-22T10:06:38.478Z,25.80
2017-08-22T10:09:05.984Z,25.90
2017-08-22T10:11:33.408Z,26.00
2017-08-22T10:14:00.950Z,25.80
2017-08-22T10:17:04.820Z,25.30
2017-08-22T10:19:34.212Z,25.20
2017-08-22T10:22:01.643Z,25.40
2017-08-22T10:24:29.114Z,25.30
2017-08-22T10:26:56.603Z,25.20
2017-08-22T10:29:24.052Z,25.00
2017-08-22T10:31:51.604Z,25.50
2017-08-22T10:34:19.048Z,25.90
2017-08-22T10:36:46.479Z,26.50
2017-08-22T10:39:13.918Z,27.00
2017-08-22T10:41:41.364Z,26.60
2017-08-22T10:44:08.784Z,26.50
2017-08-22T10:46:36.221Z,26.20
2017-08-22T10:49:03.677Z,25.90
2017-08-22T10:51:31.108Z,25.10
2017-08-22T10:53:58.556Z,23.60
2017-08-22T10:56:26.071Z,23.60
2017-08-22T10:58:53.540Z,23.70
2017-08-22T11:01:20.981Z,23.60
2017-08-22T11:03:48.417Z,23.30
2017-08-22T11:06:15.843Z,23.40
2017-08-22T11:08:43.297Z,23.60
2017-08-22T11:11:10.740Z,23.10
2017-08-22T11:13:38.246Z,23.00
2017-08-22T11:16:05.875Z,23.00
2017-08-22T11:18:33.302Z,22.80
2017-08-22T11:21:00.741Z,22.80
2017-08-22T11:23:28.164Z,23.00
2017-08-22T11:25:55.631Z,23.00
2017-08-22T11:28:23.164Z,23.00
2017-08-22T11:30:50.611Z,23.10
2017-08-22T11:33:18.048Z,22.90
2017-08-22T11:35:45.496Z,22.80
2017-08-22T11:38:12.939Z,22.70
2017-08-22T11:40:40.376Z,22.70
2017-08-22T11:43:07.831Z,22.80
2017-08-22T11:45:35.363Z,22.70
2017-08-22T11:48:02.819Z,22.80
2017-08-22T11:50:30.368Z,23.00
2017-08-22T11:52:57.869Z,23.10
2017-08-22T11:55:25.321Z,23.20
2017-08-22T11:57:52.752Z,22.80
2017-08-22T12:00:20.196Z,22.70
2017-08-22T12:02:47.691Z,22.80
2017-08-22T12:05:15.219Z,23.00
2017-08-22T12:07:42.795Z,22.40
2017-08-22T12:10:10.228Z,22.40
2017-08-22T12:12:37.764Z,22.10
2017-08-22T12:15:05.460Z,22.10
2017-08-22T12:17:32.946Z,22.30
2017-08-22T12:20:00.385Z,22.00
2017-08-22T12:22:27.844Z,22.10
2017-08-22T12:24:55.280Z,22.10
2017-08-22T12:27:22.704Z,22.20
2017-08-22T12:29:50.139Z,22.20
2017-08-22T12:32:17.599Z,22.30
2017-08-22T12:34:45.042Z,22.20
2017-08-22T12:37:12.526Z,22.20
2017-08-22T12:39:39.936Z,22.30
2017-08-22T12:42:07.370Z,22.40
2017-08-22T12:44:34.796Z,22.40
2017-08-22T12:47:02.250Z,22.10
2017-08-22T12:49:29.673Z,22.00
2017-08-22T12:51:57.128Z,22.30
2017-08-22T12:54:24.559Z,22.40
2017-08-22T12:56:52.008Z,22.50
2017-08-22T12:59:19.427Z,22.70
2017-08-22T13:01:46.880Z,22.90
2017-08-22T13:04:14.321Z,23.00
2017-08-22T13:06:41.744Z,23.00
2017-08-22T13:09:09.195Z,23.00
2017-08-22T13:11:36.748Z,23.20
2017-08-22T13:14:04.172Z,23.10
2017-08-22T13:16:31.995Z,23.10
2017-08-22T13:18:59.462Z,23.20
2017-08-22T13:21:26.985Z,23.00
2017-08-22T13:23:54.606Z,22.90
2017-08-22T13:26:22.088Z,23.00
2017-08-22T13:28:49.520Z,23.10
2017-08-22T13:31:16.964Z,23.10
2017-08-22T13:33:44.404Z,23.00
2017-08-22T13:36:11.856Z,23.00
2017-08-22T13:38:39.315Z,23.00
2017-08-22T13:41:06.752Z,23.10
2017-08-22T13:43:34.198Z,23.10
2017-08-22T13:46:01.624Z,23.00
2017-08-22T13:48:29.161Z,22.80
2017-08-22T13:50:56.640Z,22.80
2017-08-22T13:53:24.226Z,22.70
2017-08-22T13:55:51.688Z,22.50
2017-08-22T13:58:19.145Z,22.50
2017-08-22T14:00:46.584Z,22.60
2017-08-22T14:03:14.036Z,22.40
2017-08-22T14:05:41.555Z,22.40
2017-08-22T14:08:09.013Z,22.60
2017-08-22T14:10:36.444Z,22.70
2017-08-22T14:13:03.908Z,22.70
2017-08-22T14:15:31.547Z,22.80
2017-08-22T14:17:58.999Z,22.50
2017-08-22T14:20:26.523Z,22.50
2017-08-22T14:22:53.950Z,22.70
2017-08-22T14:25:21.383Z,22.80
2017-08-22T14:27:48.866Z,22.90
2017-08-22T14:30:16.329Z,23.00
2017-08-22T14:32:43.770Z,23.00
2017-08-22T14:35:11.207Z,23.00
2017-08-22T14:37:38.723Z,22.80
2017-08-22T14:40:06.268Z,22.80
2017-08-22T14:42:33.698Z,22.70
2017-08-22T14:45:01.140Z,22.70
2017-08-22T14:47:28.595Z,22.40
2017-08-22T14:49:56.045Z,22.40
2017-08-22T14:52:23.475Z,22.50
2017-08-22T14:54:50.909Z,22.50
2017-08-22T14:57:18.441Z,22.60
2017-08-22T14:59:45.903Z,22.70
2017-08-22T15:02:13.366Z,22.50
2017-08-22T15:04:40.792Z,22.40
2017-08-22T15:07:08.224Z,22.40
2017-08-22T15:09:35.675Z,22.30
2017-08-22T15:12:03.120Z,22.20
2017-08-22T15:14:30.583Z,22.20
2017-08-22T15:16:58.121Z,22.30
2017-08-22T15:19:25.553Z,22.50
2017-08-22T15:21:53.039Z,22.70
2017-08-22T15:24:20.598Z,22.70
2017-08-22T15:26:48.651Z,22.50
2017-08-22T15:29:16.081Z,22.30
2017-08-22T15:31:43.526Z,22.30
2017-08-22T15:34:10.943Z,22.40
2017-08-22T15:36:38.376Z,22.50
2017-08-22T15:39:05.811Z,22.40
2017-08-22T15:41:33.254Z,22.40
2017-08-22T15:44:00.668Z,22.20
2017-08-22T15:46:28.284Z,22.30
2017-08-22T15:48:55.746Z,22.20
2017-08-22T15:51:23.180Z,22.10
2017-08-22T15:53:50.637Z,22.00
2017-08-22T15:56:18.158Z,22.00
2017-08-22T15:58:45.728Z,21.90
2017-08-22T16:01:13.248Z,21.80
2017-08-22T16:03:40.688Z,21.80
2017-08-22T16:06:08.145Z,21.80
2017-08-22T16:08:35.782Z,21.90
2017-08-22T16:11:03.203Z,22.10
2017-08-22T16:13:30.649Z,22.10
2017-08-22T16:15:58.747Z,22.30
2017-08-22T16:18:26.168Z,22.40
2017-08-22T16:20:53.604Z,22.50
2017-08-22T16:23:21.076Z,22.30
2017-08-22T16:25:48.527Z,22.20
2017-08-22T16:28:15.960Z,22.30
2017-08-22T16:30:43.412Z,22.10
2017-08-22T16:33:10.891Z,22.00
2017-08-22T16:35:38.426Z,21.80
2017-08-22T16:38:05.856Z,21.80
2017-08-22T16:40:33.305Z,21.70
2017-08-22T16:43:00.764Z,21.80
2017-08-22T16:45:28.191Z,21.70
2017-08-22T16:47:55.640Z,21.50
2017-08-22T16:50:23.092Z,21.50
2017-08-22T16:52:50.546Z,21.60
2017-08-22T16:55:18.068Z,21.60
2017-08-22T16:57:45.513Z,21.60
2017-08-22T17:00:12.980Z,21.60
2017-08-22T17:02:40.500Z,21.50
2017-08-22T17:05:07.938Z,21.50
2017-08-22T17:07:35.384Z,21.40
2017-08-22T17:10:02.844Z,21.40
2017-08-22T17:12:30.263Z,21.40
2017-08-22T17:14:57.806Z,21.40
2017-08-22T17:17:25.239Z,21.50
2017-08-22T17:19:52.686Z,21.50
2017-08-22T17:22:20.125Z,21.40
2017-08-22T17:24:47.580Z,21.40
2017-08-22T17:27:15.005Z,21.30
2017-08-22T17:29:42.527Z,21.10
2017-08-22T17:32:09.964Z,21.10
2017-08-22T17:34:37.551Z,21.20
2017-08-22T17:37:04.980Z,21.10
2017-08-22T17:39:32.508Z,21.10
2017-08-22T17:41:59.932Z,21.00
2017-08-22T17:44:27.378Z,21.00
2017-08-22T17:46:54.834Z,21.00
2017-08-22T17:49:22.372Z,20.90
2017-08-22T17:51:49.816Z,20.90
2017-08-22T17:54:17.247Z,20.90
2017-08-22T17:56:44.726Z,20.80
2017-08-22T17:59:12.196Z,20.70
2017-08-22T18:01:39.636Z,20.70
2017-08-22T18:04:07.232Z,20.70
2017-08-22T18:06:34.668Z,20.70
2017-08-22T18:09:02.124Z,20.70
2017-08-22T18:11:29.675Z,20.70
2017-08-22T18:13:57.106Z,20.70
2017-08-22T18:16:24.539Z,20.70
2017-08-22T18:18:51.969Z,20.70
2017-08-22T18:21:19.407Z,20.50
2017-08-22T18:23:46.883Z,20.50
2017-08-22T18:26:14.324Z,20.50
2017-08-22T18:28:41.954Z,20.50
2017-08-22T18:31:09.414Z,20.40
2017-08-22T18:33:36.864Z,20.40
2017-08-22T18:36:04.315Z,20.40
2017-08-22T18:38:31.749Z,20.40
2017-08-22T18:41:00.182Z,20.40
2017-08-22T18:43:27.634Z,20.40
2017-08-22T18:45:55.099Z,20.40
2017-08-22T18:48:22.558Z,20.40
2017-08-22T18:50:50.004Z,20.30
2017-08-22T18:53:17.520Z,20.10
2017-08-22T18:55:44.945Z,20.10
2017-08-22T18:58:12.684Z,20.10
2017-08-22T19:00:40.128Z,20.10
2017-08-22T19:03:07.611Z,20.00
2017-08-22T19:05:35.109Z,19.90
2017-08-22T19:08:02.563Z,19.90
2017-08-22T19:10:29.983Z,19.90
2017-08-22T19:12:57.435Z,19.80
2017-08-22T19:15:24.908Z,19.80
2017-08-22T19:17:52.348Z,19.80
2017-08-22T19:20:19.892Z,19.70
2017-08-22T19:22:47.342Z,19.60
2017-08-22T19:25:14.791Z,19.60
2017-08-22T19:27:42.357Z,19.50
2017-08-22T19:30:09.886Z,19.40
2017-08-22T19:32:37.328Z,19.40
2017-08-22T19:35:04.881Z,19.30
2017-08-22T19:37:32.328Z,19.30
2017-08-22T19:39:59.755Z,19.20
2017-08-22T19:42:27.386Z,19.20
2017-08-22T19:44:54.872Z,19.10
2017-08-22T19:47:22.311Z,19.10
2017-08-22T19:49:49.769Z,19.10
2017-08-22T19:52:17.261Z,19.00
2017-08-22T19:54:44.712Z,19.00
2017-08-22T19:57:12.141Z,19.00
2017-08-22T19:59:39.601Z,19.00
2017-08-22T20:02:07.151Z,18.90
2017-08-22T20:04:34.685Z,18.90
2017-08-22T20:07:02.120Z,18.80
2017-08-22T20:09:29.555Z,18.80
2017-08-22T20:11:56.988Z,18.70
2017-08-22T20:14:24.435Z,18.60
2017-08-22T20:16:51.930Z,18.50
2017-08-22T20:19:19.364Z,18.50
2017-08-22T20:21:46.892Z,18.40
2017-08-22T20:24:14.327Z,18.40
2017-08-22T20:26:41.779Z,18.40
2017-08-22T20:29:09.332Z,18.40
2017-08-22T20:31:36.772Z,18.30
2017-08-22T20:34:04.300Z,18.30
2017-08-22T20:36:31.832Z,18.30
2017-08-22T20:38:59.316Z,18.30
2017-08-22T20:41:26.832Z,18.30
2017-08-22T20:43:54.379Z,18.20
2017-08-22T20:46:21.816Z,18.20
2017-08-22T20:48:49.244Z,18.10
2017-08-22T20:51:16.702Z,18.10
2017-08-22T20:53:44.165Z,18.10
2017-08-22T20:56:11.612Z,18.10
2017-08-22T20:58:39.127Z,18.00
2017-08-22T21:01:07.600Z,18.00
2017-08-22T21:03:35.036Z,18.00
2017-08-22T21:06:02.597Z,18.00
2017-08-22T21:08:30.040Z,17.90
2017-08-22T21:10:57.503Z,17.80
2017-08-22T21:13:24.944Z,17.70
2017-08-22T21:15:52.395Z,17.70
2017-08-22T21:18:19.987Z,17.70
2017-08-22T21:20:47.450Z,17.60
2017-08-22T21:23:14.887Z,17.50
2017-08-22T21:25:42.328Z,17.50
2017-08-22T21:28:09.779Z,17.40
2017-08-22T21:30:37.451Z,17.50
2017-08-22T21:33:04.963Z,17.50
2017-08-22T21:35:32.404Z,17.50
2017-08-22T21:37:59.847Z,17.50
2017-08-22T21:40:27.305Z,17.40
2017-08-22T21:42:54.755Z,17.30
2017-08-22T21:45:22.200Z,17.20
2017-08-22T21:47:49.648Z,17.20
2017-08-22T21:50:17.888Z,17.10
2017-08-22T21:52:45.390Z,17.10
2017-08-22T21:55:12.825Z,17.10
2017-08-22T21:57:40.281Z,17.00
2017-08-22T22:00:07.716Z,17.00
2017-08-22T22:02:35.179Z,16.90
2017-08-22T22:05:02.611Z,16.90
2017-08-22T22:07:30.108Z,16.80
2017-08-22T22:09:57.630Z,16.70
2017-08-22T22:12:25.078Z,16.70
2017-08-22T22:14:52.504Z,16.70
2017-08-22T22:17:19.960Z,16.80
2017-08-22T22:19:47.596Z,16.70
2017-08-22T22:22:15.058Z,16.80
2017-08-22T22:24:42.492Z,16.70
2017-08-22T22:27:10.036Z,16.70
2017-08-22T22:29:37.484Z,16.70
2017-08-22T22:32:04.916Z,16.70
2017-08-22T22:34:32.372Z,16.80
2017-08-22T22:36:59.907Z,16.80
2017-08-22T22:39:27.412Z,16.80
2017-08-22T22:41:54.844Z,16.80
2017-08-22T22:44:22.333Z,16.80
2017-08-22T22:46:49.784Z,16.80
2017-08-22T22:49:17.225Z,16.70
2017-08-22T22:51:44.671Z,16.70
2017-08-22T22:54:12.126Z,16.70
2017-08-22T22:56:40.507Z,16.70
2017-08-22T22:59:07.951Z,16.60
2017-08-22T23:01:35.404Z,16.60
2017-08-22T23:04:02.855Z,16.60
2017-08-22T23:06:30.292Z,16.60
2017-08-22T23:08:57.732Z,16.50
2017-08-22T23:11:25.248Z,16.50
2017-08-22T23:13:52.787Z,16.50
2017-08-22T23:16:20.326Z,16.50
2017-08-22T23:18:47.897Z,16.50
2017-08-22T23:21:15.403Z,16.40
2017-08-22T23:23:42.867Z,16.40
2017-08-22T23:26:10.411Z,16.40
2017-08-22T23:28:37.841Z,16.40
2017-08-22T23:31:05.284Z,16.40
2017-08-22T23:33:32.839Z,16.30
2017-08-22T23:36:00.364Z,16.20
2017-08-22T23:38:27.813Z,16.20
2017-08-22T23:40:55.365Z,16.10
2017-08-22T23:43:22.803Z,16.10
2017-08-22T23:45:50.259Z,16.10
2017-08-22T23:48:17.789Z,16.10
2017-08-22T23:50:45.241Z,16.10
2017-08-22T23:53:12.781Z,16.10
2017-08-22T23:55:40.312Z,16.00
2017-08-22T23:58:07.748Z,15.90
